createdAt,value
2023-05-07T00:01:51.172Z,4.67
2023-05-07T00:04:18.325Z,4.67
2023-05-07T00:06:45.452Z,4.67
2023-05-07T00:09:12.471Z,4.66
2023-05-07T00:11:39.503Z,4.66
2023-05-07T00:14:07.012Z,4.66
2023-05-07T00:16:34.263Z,4.68
2023-05-07T00:19:01.271Z,4.69
2023-05-07T00:21:28.386Z,4.72
2023-05-07T00:23:55.390Z,4.68
2023-05-07T00:26:22.925Z,4.62
2023-05-07T00:28:50.022Z,4.60
2023-05-07T00:31:16.997Z,4.60
2023-05-07T00:33:43.957Z,4.59
2023-05-07T00:36:11.092Z,4.59
2023-05-07T00:38:38.130Z,4.61
2023-05-07T00:41:05.886Z,4.61
2023-05-07T00:43:33.218Z,4.63
2023-05-07T00:46:00.382Z,4.63
2023-05-07T00:48:27.577Z,4.61
2023-05-07T00:50:55.408Z,4.59
2023-05-07T00:53:22.472Z,4.61
2023-05-07T00:55:50.008Z,4.63
2023-05-07T00:58:17.465Z,4.59
2023-05-07T01:00:44.392Z,4.55
2023-05-07T01:03:11.393Z,4.50
2023-05-07T01:05:39.253Z,4.47
2023-05-07T01:08:06.936Z,4.47
2023-05-07T01:10:34.082Z,4.47
2023-05-07T01:13:02.056Z,4.46
2023-05-07T01:15:29.176Z,4.47
2023-05-07T01:17:56.734Z,4.45
2023-05-07T01:20:24.072Z,4.46
2023-05-07T01:22:51.090Z,4.47
2023-05-07T01:25:19.231Z,4.44
2023-05-07T01:27:46.572Z,4.41
2023-05-07T01:30:14.078Z,4.39
2023-05-07T01:32:54.245Z,4.42
2023-05-07T01:35:28.404Z,4.45
2023-05-07T01:37:55.843Z,4.43
2023-05-07T01:40:23.965Z,4.39
2023-05-07T01:42:51.659Z,4.36
2023-05-07T01:45:18.773Z,4.32
2023-05-07T01:47:46.730Z,4.29
2023-05-07T01:50:16.482Z,4.29
2023-05-07T01:52:44.147Z,4.27
2023-05-07T01:55:11.659Z,4.26
2023-05-07T01:57:38.631Z,4.28
2023-05-07T02:00:06.374Z,4.32
2023-05-07T02:02:33.709Z,4.33
2023-05-07T02:05:02.114Z,4.32
2023-05-07T02:07:29.093Z,4.34
2023-05-07T02:09:56.067Z,4.33
2023-05-07T02:12:23.748Z,4.31
2023-05-07T02:14:50.785Z,4.32
2023-05-07T02:17:17.724Z,4.33
2023-05-07T02:19:44.913Z,4.33
2023-05-07T02:22:11.965Z,4.33
2023-05-07T02:24:38.977Z,4.35
2023-05-07T02:27:05.957Z,4.34
2023-05-07T02:29:33.013Z,4.32
2023-05-07T02:32:00.176Z,4.33
2023-05-07T02:34:27.497Z,4.36
2023-05-07T02:36:54.490Z,4.37
2023-05-07T02:39:21.532Z,4.37
2023-05-07T02:41:48.460Z,4.37
2023-05-07T02:44:15.432Z,4.39
2023-05-07T02:46:42.417Z,4.39
2023-05-07T02:49:09.379Z,4.39
2023-05-07T02:51:36.427Z,4.39
2023-05-07T02:54:03.418Z,4.39
2023-05-07T02:56:30.887Z,4.39
2023-05-07T02:58:57.865Z,4.38
2023-05-07T03:01:25.049Z,4.39
2023-05-07T03:03:52.593Z,4.40
2023-05-07T03:06:19.625Z,4.37
2023-05-07T03:08:46.562Z,4.37
2023-05-07T03:11:13.691Z,4.38
2023-05-07T03:13:40.737Z,4.38
2023-05-07T03:16:07.881Z,4.38
2023-05-07T03:18:35.060Z,4.40
2023-05-07T03:21:02.348Z,4.39
2023-05-07T03:23:29.258Z,4.42
2023-05-07T03:25:56.272Z,4.42
2023-05-07T03:28:23.444Z,4.40
2023-05-07T03:30:51.237Z,4.36
2023-05-07T03:33:18.123Z,4.33
2023-05-07T03:35:45.148Z,4.30
2023-05-07T03:38:12.154Z,4.33
2023-05-07T03:40:39.195Z,4.35
2023-05-07T03:43:06.337Z,4.35
2023-05-07T03:45:33.395Z,4.36
2023-05-07T03:48:00.377Z,4.40
2023-05-07T03:50:27.491Z,4.45
2023-05-07T03:52:54.410Z,4.49
2023-05-07T03:55:21.401Z,4.50
2023-05-07T03:57:48.369Z,4.47
2023-05-07T04:00:15.481Z,4.48
2023-05-07T04:02:42.599Z,4.45
2023-05-07T04:05:10.056Z,4.42
2023-05-07T04:07:37.061Z,4.43
2023-05-07T04:10:04.185Z,4.42
2023-05-07T04:12:31.102Z,4.43
2023-05-07T04:14:57.997Z,4.45
2023-05-07T04:17:25.057Z,4.48
2023-05-07T04:19:52.178Z,4.47
2023-05-07T04:22:19.249Z,4.47
2023-05-07T04:24:46.290Z,4.50
2023-05-07T04:27:13.292Z,4.52
2023-05-07T04:29:42.819Z,4.50
2023-05-07T04:32:10.727Z,4.49
2023-05-07T04:34:37.893Z,4.50
2023-05-07T04:37:04.860Z,4.52
2023-05-07T04:39:33.406Z,4.51
2023-05-07T04:42:01.278Z,4.51
2023-05-07T04:44:28.311Z,4.48
2023-05-07T04:46:55.354Z,4.46
2023-05-07T04:49:22.264Z,4.46
2023-05-07T04:52:13.216Z,4.50
2023-05-07T05:18:44.887Z,4.64
2023-05-07T05:25:24.354Z,4.77
2023-05-07T05:46:39.723Z,5.03
2023-05-07T05:54:20.277Z,5.17
2023-05-07T06:03:24.442Z,5.35
2023-05-07T06:06:43.583Z,5.37
2023-05-07T06:25:12.364Z,5.90
2023-05-07T06:39:22.774Z,6.24
2023-05-07T06:42:14.122Z,6.28
2023-05-07T06:45:23.933Z,6.29
2023-05-07T06:48:45.887Z,6.27
2023-05-07T06:51:41.924Z,6.36
2023-05-07T06:54:15.589Z,6.47
2023-05-07T06:56:42.674Z,6.51
2023-05-07T06:59:09.639Z,6.51
2023-05-07T07:01:36.693Z,6.50
2023-05-07T07:04:03.858Z,6.54
2023-05-07T07:06:32.343Z,6.58
2023-05-07T07:09:09.998Z,6.61
2023-05-07T07:17:03.185Z,6.68
2023-05-07T07:19:30.025Z,6.75
2023-05-07T07:21:57.210Z,6.84
2023-05-07T07:24:24.140Z,6.85
2023-05-07T07:26:51.123Z,6.87
2023-05-07T07:29:19.172Z,6.88
2023-05-07T07:31:46.185Z,6.93
2023-05-07T07:34:13.249Z,6.94
2023-05-07T07:36:46.122Z,6.95
2023-05-07T07:39:19.337Z,7.01
2023-05-07T07:41:49.396Z,7.05
2023-05-07T07:44:21.375Z,6.98
2023-05-07T07:46:57.061Z,6.92
2023-05-07T07:49:25.025Z,6.86
2023-05-07T07:51:53.490Z,6.80
2023-05-07T07:54:23.294Z,6.83
2023-05-07T07:56:50.906Z,6.86
2023-05-07T07:59:20.173Z,6.90
2023-05-07T08:01:52.211Z,6.92
2023-05-07T08:04:21.475Z,6.97
2023-05-07T08:06:49.117Z,7.04
2023-05-07T08:09:16.671Z,7.07
2023-05-07T08:11:44.969Z,7.09
2023-05-07T08:14:13.519Z,7.18
2023-05-07T08:16:43.434Z,7.27
2023-05-07T08:19:11.620Z,7.36
2023-05-07T08:21:40.741Z,7.38
2023-05-07T08:24:08.246Z,7.37
2023-05-07T08:26:37.125Z,7.41
2023-05-07T08:29:04.308Z,7.39
2023-05-07T08:31:33.721Z,7.40
2023-05-07T08:34:06.354Z,7.47
2023-05-07T08:36:37.000Z,7.53
2023-05-07T08:39:06.983Z,7.57
2023-05-07T08:41:36.344Z,7.57
2023-05-07T08:44:07.142Z,7.55
2023-05-07T08:46:35.943Z,7.47
2023-05-07T08:49:04.634Z,7.43
2023-05-07T08:51:31.988Z,7.38
2023-05-07T08:54:00.197Z,7.33
2023-05-07T08:56:27.247Z,7.30
2023-05-07T08:59:00.710Z,7.27
2023-05-07T09:01:28.406Z,7.29
2023-05-07T09:03:55.852Z,7.32
2023-05-07T09:06:23.256Z,7.37
2023-05-07T09:08:51.696Z,7.31
2023-05-07T09:11:22.796Z,7.23
2023-05-07T09:13:55.244Z,7.25
2023-05-07T09:16:22.963Z,7.35
2023-05-07T09:18:52.672Z,7.48
2023-05-07T09:21:20.791Z,7.61
2023-05-07T09:23:55.968Z,7.82
2023-05-07T09:26:24.344Z,8.00
2023-05-07T09:28:51.738Z,8.16
2023-05-07T09:31:21.099Z,8.24
2023-05-07T09:33:48.613Z,8.22
2023-05-07T09:36:15.844Z,8.16
2023-05-07T09:38:43.181Z,8.10
2023-05-07T09:41:12.870Z,8.12
2023-05-07T09:43:41.275Z,8.14
2023-05-07T09:46:20.933Z,8.10
2023-05-07T09:48:49.233Z,8.08
2023-05-07T09:51:27.490Z,8.06
2023-05-07T09:53:54.743Z,8.06
2023-05-07T09:56:22.546Z,8.12
2023-05-07T09:58:52.101Z,8.21
2023-05-07T10:01:22.622Z,8.27
2023-05-07T10:03:52.127Z,8.37
2023-05-07T10:06:23.292Z,8.41
2023-05-07T10:08:56.032Z,8.33
2023-05-07T10:11:23.934Z,8.19
2023-05-07T10:13:54.205Z,8.16
2023-05-07T10:16:25.999Z,8.22
2023-05-07T10:19:02.922Z,8.32
2023-05-07T10:21:33.167Z,8.34
2023-05-07T10:24:07.988Z,8.35
2023-05-07T10:26:37.016Z,8.29
2023-05-07T10:29:13.406Z,8.22
2023-05-07T10:31:54.263Z,8.17
2023-05-07T10:34:28.791Z,8.13
2023-05-07T10:36:57.551Z,8.10
2023-05-07T10:39:26.922Z,8.12
2023-05-07T10:41:54.855Z,8.12
2023-05-07T10:44:29.609Z,8.09
2023-05-07T10:47:21.875Z,8.06
2023-05-07T10:49:50.743Z,8.06
2023-05-07T10:52:27.203Z,8.00
2023-05-07T10:55:20.559Z,7.92
2023-05-07T10:57:54.292Z,7.90
2023-05-07T11:00:35.532Z,7.90
2023-05-07T11:03:09.853Z,7.96
2023-05-07T11:05:38.588Z,8.03
2023-05-07T11:08:09.085Z,8.09
2023-05-07T11:10:55.310Z,8.20
2023-05-07T11:13:42.620Z,8.30
2023-05-07T11:16:23.512Z,8.30
2023-05-07T11:18:57.452Z,8.38
2023-05-07T11:21:42.765Z,8.51
2023-05-07T11:24:11.095Z,8.53
2023-05-07T11:26:50.244Z,8.54
2023-05-07T11:29:24.182Z,8.65
2023-05-07T11:31:56.265Z,8.72
2023-05-07T11:34:27.724Z,8.68
2023-05-07T11:36:56.463Z,8.62
2023-05-07T11:39:37.107Z,8.61
2023-05-07T11:42:04.163Z,8.63
2023-05-07T11:44:46.734Z,8.70
2023-05-07T11:47:20.862Z,8.93
2023-05-07T11:49:53.967Z,9.10
2023-05-07T11:52:24.058Z,9.15
2023-05-07T11:54:52.091Z,9.29
2023-05-07T11:57:19.105Z,9.30
2023-05-07T11:59:47.793Z,9.27
2023-05-07T12:02:16.374Z,9.25
2023-05-07T12:04:43.643Z,9.23
2023-05-07T12:07:14.446Z,9.35
2023-05-07T12:09:45.726Z,9.84
2023-05-07T12:12:15.102Z,10.19
2023-05-07T12:14:43.643Z,10.34
2023-05-07T12:17:12.049Z,10.18
2023-05-07T12:19:40.957Z,10.02
2023-05-07T12:22:11.767Z,9.82
2023-05-07T12:24:45.912Z,9.65
2023-05-07T12:27:14.432Z,9.59
2023-05-07T12:29:49.368Z,9.55
2023-05-07T12:32:18.040Z,9.45
2023-05-07T12:34:46.485Z,9.41
2023-05-07T12:37:14.058Z,9.43
2023-05-07T12:40:07.705Z,9.59
2023-05-07T12:42:43.212Z,9.79
2023-05-07T12:45:16.863Z,9.81
2023-05-07T12:47:46.145Z,10.00
2023-05-07T12:50:26.533Z,10.64
2023-05-07T12:52:56.023Z,11.00
2023-05-07T12:55:23.293Z,11.15
2023-05-07T12:57:54.928Z,11.41
2023-05-07T13:00:40.735Z,11.47
2023-05-07T13:03:10.556Z,11.38
2023-05-07T13:05:41.301Z,11.08
2023-05-07T13:08:10.355Z,10.75
2023-05-07T13:10:38.225Z,10.51
2023-05-07T13:13:05.514Z,10.28
2023-05-07T13:15:32.570Z,10.18
2023-05-07T13:18:02.572Z,10.21
2023-05-07T13:20:40.354Z,10.29
2023-05-07T13:23:22.110Z,10.23
2023-05-07T13:25:52.957Z,10.01
2023-05-07T13:28:22.489Z,9.93
2023-05-07T13:31:01.966Z,9.87
2023-05-07T13:33:28.969Z,9.93
2023-05-07T13:35:57.636Z,10.00
2023-05-07T13:38:25.142Z,10.03
2023-05-07T13:40:54.045Z,10.08
2023-05-07T13:43:23.388Z,10.06
2023-05-07T13:45:50.440Z,10.04
2023-05-07T13:48:17.550Z,10.05
2023-05-07T13:50:46.973Z,10.06
2023-05-07T13:53:18.721Z,10.46
2023-05-07T13:55:59.734Z,10.74
2023-05-07T13:58:30.554Z,10.83
2023-05-07T14:00:59.216Z,11.06
2023-05-07T14:03:36.542Z,11.07
2023-05-07T14:06:04.710Z,11.34
2023-05-07T14:08:35.149Z,11.64
2023-05-07T14:11:10.214Z,11.68
2023-05-07T14:13:37.369Z,11.59
2023-05-07T14:16:06.075Z,11.44
2023-05-07T14:18:37.628Z,11.60
2023-05-07T14:21:07.117Z,11.74
2023-05-07T14:23:34.666Z,11.73
2023-05-07T14:26:02.115Z,11.78
2023-05-07T14:28:33.621Z,11.84
2023-05-07T14:31:02.999Z,11.81
2023-05-07T14:33:30.505Z,11.54
2023-05-07T14:36:01.318Z,11.19
2023-05-07T14:38:31.982Z,11.01
2023-05-07T14:40:59.258Z,10.94
2023-05-07T14:43:26.817Z,10.80
2023-05-07T14:45:54.657Z,10.84
2023-05-07T14:48:22.514Z,10.99
2023-05-07T14:50:50.236Z,11.15
2023-05-07T14:53:18.937Z,11.22
2023-05-07T14:55:47.850Z,11.16
2023-05-07T14:58:15.423Z,11.06
2023-05-07T15:00:55.017Z,11.01
2023-05-07T15:03:22.935Z,10.89
2023-05-07T15:05:52.284Z,10.75
2023-05-07T15:08:19.523Z,10.62
2023-05-07T15:10:46.791Z,10.44
2023-05-07T15:13:16.177Z,10.33
2023-05-07T15:15:48.035Z,10.35
2023-05-07T15:18:22.795Z,10.43
2023-05-07T15:20:50.942Z,10.55
2023-05-07T15:23:18.050Z,10.63
2023-05-07T15:25:45.847Z,10.74
2023-05-07T15:28:15.988Z,10.78
2023-05-07T15:30:43.031Z,10.73
2023-05-07T15:33:10.561Z,10.76
2023-05-07T15:35:38.296Z,10.89
2023-05-07T15:38:05.872Z,11.00
2023-05-07T15:40:33.419Z,11.04
2023-05-07T15:43:04.666Z,11.10
2023-05-07T15:45:33.137Z,11.03
2023-05-07T15:48:00.241Z,11.05
2023-05-07T15:50:27.310Z,11.12
2023-05-07T15:52:54.490Z,11.11
2023-05-07T15:55:21.649Z,11.02
2023-05-07T15:57:48.984Z,11.00
2023-05-07T16:00:17.219Z,10.99
2023-05-07T16:02:44.927Z,10.98
2023-05-07T16:05:13.350Z,10.93
2023-05-07T16:07:42.580Z,10.92
2023-05-07T16:10:10.577Z,10.94
2023-05-07T16:12:37.616Z,10.88
2023-05-07T16:15:05.628Z,10.82
2023-05-07T16:17:32.738Z,10.75
2023-05-07T16:20:01.665Z,10.66
2023-05-07T16:22:28.892Z,10.67
2023-05-07T16:24:55.970Z,10.71
2023-05-07T16:27:22.982Z,10.73
2023-05-07T16:29:49.968Z,10.74
2023-05-07T16:32:16.974Z,10.71
2023-05-07T16:34:44.005Z,10.64
2023-05-07T16:37:11.134Z,10.56
2023-05-07T16:39:38.408Z,10.49
2023-05-07T16:42:05.646Z,10.44
2023-05-07T16:44:32.724Z,10.46
2023-05-07T16:46:59.665Z,10.46
2023-05-07T16:49:26.843Z,10.45
2023-05-07T16:51:53.835Z,10.42
2023-05-07T16:54:20.837Z,10.35
2023-05-07T16:56:48.128Z,10.33
2023-05-07T16:59:15.118Z,10.30
2023-05-07T17:01:42.728Z,10.27
2023-05-07T17:04:11.029Z,10.14
2023-05-07T17:06:38.180Z,10.12
2023-05-07T17:09:05.338Z,10.09
2023-05-07T17:11:33.707Z,10.06
2023-05-07T17:14:01.370Z,10.01
2023-05-07T17:16:29.493Z,9.98
2023-05-07T17:18:56.522Z,9.93
2023-05-07T17:21:23.553Z,9.86
2023-05-07T17:23:50.546Z,9.81
2023-05-07T17:26:17.453Z,9.76
2023-05-07T17:28:44.380Z,9.72
2023-05-07T17:31:11.424Z,9.60
2023-05-07T17:33:38.487Z,9.51
2023-05-07T17:36:07.830Z,9.45
2023-05-07T17:38:35.218Z,9.35
2023-05-07T17:41:02.478Z,9.23
2023-05-07T17:43:29.969Z,9.15
2023-05-07T17:45:56.933Z,9.08
2023-05-07T17:48:24.102Z,9.00
2023-05-07T17:50:51.051Z,8.90
2023-05-07T17:53:18.070Z,8.82
2023-05-07T17:55:45.555Z,8.73
2023-05-07T17:58:13.303Z,8.64
2023-05-07T18:00:42.062Z,8.55
2023-05-07T18:03:09.267Z,8.49
2023-05-07T18:05:37.681Z,8.40
2023-05-07T18:08:07.293Z,8.33
2023-05-07T18:10:34.763Z,8.24
2023-05-07T18:13:02.254Z,8.17
2023-05-07T18:15:46.337Z,8.08
2023-05-07T18:18:14.465Z,8.00
2023-05-07T18:20:44.154Z,7.92
2023-05-07T18:23:12.379Z,7.85
2023-05-07T18:25:40.204Z,7.78
2023-05-07T18:28:07.767Z,7.70
2023-05-07T18:30:54.763Z,7.63
2023-05-07T18:33:22.466Z,7.55
2023-05-07T18:35:49.733Z,7.50
2023-05-07T18:38:17.187Z,7.43
2023-05-07T18:40:44.640Z,7.39
2023-05-07T18:43:12.198Z,7.33
2023-05-07T18:45:40.605Z,7.25
2023-05-07T18:54:28.949Z,7.07
2023-05-07T18:57:00.208Z,6.97
2023-05-07T18:59:29.403Z,6.90
2023-05-07T19:02:02.487Z,6.85
2023-05-07T19:04:30.864Z,6.82
2023-05-07T19:06:57.889Z,6.80
2023-05-07T19:09:26.723Z,6.79
2023-05-07T19:11:55.163Z,6.77
2023-05-07T19:14:27.742Z,6.74
2023-05-07T19:16:55.918Z,6.71
2023-05-07T19:19:23.082Z,6.67
2023-05-07T19:21:50.418Z,6.60
2023-05-07T19:24:21.304Z,6.52
2023-05-07T19:27:00.292Z,6.46
2023-05-07T19:29:27.696Z,6.38
2023-05-07T19:31:57.479Z,6.32
2023-05-07T19:34:25.783Z,6.29
2023-05-07T19:36:56.009Z,6.27
2023-05-07T19:39:23.930Z,6.24
2023-05-07T19:41:53.714Z,6.21
2023-05-07T19:44:20.886Z,6.17
2023-05-07T19:46:48.104Z,6.09
2023-05-07T19:49:15.500Z,6.01
2023-05-07T19:51:47.031Z,5.96
2023-05-07T19:54:15.160Z,5.95
2023-05-07T19:56:43.305Z,5.93
2023-05-07T19:59:10.209Z,5.91
2023-05-07T20:01:38.908Z,5.89
2023-05-07T20:04:07.754Z,5.85
2023-05-07T20:06:43.132Z,5.83
2023-05-07T20:09:12.316Z,5.80
2023-05-07T20:11:44.532Z,5.75
2023-05-07T20:14:13.387Z,5.71
2023-05-07T20:16:41.880Z,5.69
2023-05-07T20:19:10.344Z,5.68
2023-05-07T20:21:37.935Z,5.66
2023-05-07T20:24:06.089Z,5.63
2023-05-07T20:26:33.327Z,5.58
2023-05-07T20:29:00.674Z,5.51
2023-05-07T20:31:27.929Z,5.46
2023-05-07T20:33:55.001Z,5.42
2023-05-07T20:36:24.608Z,5.39
2023-05-07T20:38:52.212Z,5.37
2023-05-07T20:41:20.580Z,5.36
2023-05-07T20:43:48.238Z,5.34
2023-05-07T20:46:16.681Z,5.29
2023-05-07T20:48:44.560Z,5.26
2023-05-07T20:51:13.455Z,5.26
2023-05-07T20:53:40.691Z,5.24
2023-05-07T20:56:07.964Z,5.20
2023-05-07T20:58:35.688Z,5.16
2023-05-07T21:01:05.454Z,5.11
2023-05-07T21:03:32.498Z,5.05
2023-05-07T21:12:36.138Z,4.95
2023-05-07T21:15:05.016Z,4.95
2023-05-07T21:17:35.456Z,4.97
2023-05-07T21:20:04.394Z,4.99
2023-05-07T21:22:32.782Z,4.98
2023-05-07T21:25:01.441Z,4.98
2023-05-07T21:27:30.196Z,4.94
2023-05-07T21:30:03.743Z,4.90
2023-05-07T21:32:32.079Z,4.87
2023-05-07T21:35:01.232Z,4.81
2023-05-07T21:37:29.557Z,4.77
2023-05-07T21:39:57.885Z,4.73
2023-05-07T21:42:27.394Z,4.68
2023-05-07T21:44:55.841Z,4.62
2023-05-07T21:47:24.258Z,4.60
2023-05-07T21:49:52.689Z,4.59
2023-05-07T21:52:26.099Z,4.58
2023-05-07T21:54:54.376Z,4.56
2023-05-07T21:57:22.688Z,4.53
2023-05-07T21:59:50.990Z,4.53
2023-05-07T22:02:19.400Z,4.50
2023-05-07T22:04:47.905Z,4.48
2023-05-07T22:07:16.702Z,4.48
2023-05-07T22:09:45.536Z,4.45
2023-05-07T22:12:13.958Z,4.44
2023-05-07T22:14:42.281Z,4.43
2023-05-07T22:17:10.686Z,4.38
2023-05-07T22:19:39.163Z,4.30
2023-05-07T22:22:07.490Z,4.18
2023-05-07T22:24:35.737Z,4.11
2023-05-07T22:27:04.168Z,4.07
2023-05-07T22:29:32.451Z,4.06
2023-05-07T22:32:00.832Z,4.02
2023-05-07T22:34:29.776Z,3.99
2023-05-07T22:36:58.232Z,3.93
2023-05-07T22:39:26.494Z,3.85
2023-05-07T22:41:54.758Z,3.81
2023-05-07T22:44:23.194Z,3.80
2023-05-07T22:46:51.527Z,3.76
2023-05-07T22:49:19.901Z,3.72
2023-05-07T22:51:48.150Z,3.70
2023-05-07T22:54:16.462Z,3.65
2023-05-07T22:56:45.192Z,3.55
2023-05-07T22:59:13.698Z,3.47
2023-05-07T23:01:42.271Z,3.42
2023-05-07T23:04:10.648Z,3.39
2023-05-07T23:06:38.991Z,3.36
2023-05-07T23:09:08.973Z,3.34
2023-05-07T23:11:37.581Z,3.28
2023-05-07T23:14:05.921Z,3.23
2023-05-07T23:16:34.698Z,3.21
2023-05-07T23:19:03.074Z,3.22
2023-05-07T23:21:31.438Z,3.21
2023-05-07T23:23:59.857Z,3.18
2023-05-07T23:26:30.991Z,3.13
2023-05-07T23:28:59.272Z,3.12
2023-05-07T23:31:27.718Z,3.08
2023-05-07T23:33:56.119Z,3.05
2023-05-07T23:36:24.495Z,3.00
2023-05-07T23:38:52.795Z,2.96
2023-05-07T23:41:21.177Z,2.94
2023-05-07T23:43:49.565Z,2.91
2023-05-07T23:46:18.159Z,2.87
2023-05-07T23:48:46.604Z,2.86
2023-05-07T23:51:15.076Z,2.87
2023-05-07T23:53:43.436Z,2.87
2023-05-07T23:56:11.723Z,2.84
2023-05-07T23:58:40.018Z,2.79
